Time;durP1;ratioP1;P1;durP2;ratioP2;P2;SDS_P1;SDS_P2;PMS_P1;PMS_P2;Temp;Humidity;BMP_temperature;BMP_pressure;BME280_temperature;BME280_humidity;BME280_pressure;Samples;Min_cycle;Max_cycle;Signal;HPM_P1;HPM_P2
2023/04/14 00:00:18;;;;;;;5.78;1.48;;;;;;;10.91;30.01;99409.34;4956999;28;20105;-67
2023/04/14 00:02:46;;;;;;;3.15;1.52;;;;;;;10.82;30.59;99410.34;5008028;28;20148;-66
2023/04/14 00:05:12;;;;;;;2.08;1.58;;;;;;;10.90;31.02;99415.66;4998697;28;20110;-67
2023/04/14 00:07:38;;;;;;;7.18;1.60;;;;;;;10.89;30.37;99429.94;4998356;28;20045;-67
2023/04/14 00:10:04;;;;;;;1.83;1.40;;;;;;;10.90;30.18;99443.03;4979987;28;20056;-68
2023/04/14 00:12:31;;;;;;;10.63;1.73;;;;;;;10.77;30.53;99431.25;4980275;28;20046;-67
2023/04/14 00:14:57;;;;;;;3.10;1.90;;;;;;;10.79;30.55;99430.09;4979863;28;20045;-68
2023/04/14 00:17:23;;;;;;;5.68;1.70;;;;;;;10.65;30.62;99456.47;4995109;28;20140;-68
2023/04/14 00:19:50;;;;;;;5.88;1.80;;;;;;;10.54;31.53;99446.13;4979373;28;20242;-67
2023/04/14 00:22:17;;;;;;;1.90;1.70;;;;;;;10.41;31.01;99432.50;4995014;28;20057;-67
2023/04/14 00:24:43;;;;;;;6.50;1.70;;;;;;;10.57;31.08;99437.84;4995276;28;20135;-67
2023/04/14 00:27:10;;;;;;;2.42;1.73;;;;;;;10.44;30.76;99440.97;4994848;28;20054;-68
2023/04/14 00:29:39;;;;;;;4.25;2.10;;;;;;;10.40;31.47;99441.44;4959440;28;20528;-67
2023/04/14 00:32:05;;;;;;;3.20;1.80;;;;;;;10.40;31.63;99438.78;4959999;28;20562;-68
2023/04/14 00:34:32;;;;;;;1.95;1.75;;;;;;;10.38;31.62;99438.16;4943572;28;20088;-67
2023/04/14 00:36:59;;;;;;;2.10;1.77;;;;;;;10.33;31.16;99443.09;4956380;28;20104;-66
2023/04/14 00:39:24;;;;;;;2.72;1.92;;;;;;;10.18;32.04;99437.56;4924721;28;20081;-67
2023/04/14 00:41:51;;;;;;;4.05;1.95;;;;;;;10.19;31.17;99455.97;4924805;28;20055;-66
2023/04/14 00:44:17;;;;;;;2.20;1.93;;;;;;;10.18;31.05;99454.31;4924576;28;20145;-66
2023/04/14 00:46:44;;;;;;;1.92;1.65;;;;;;;10.31;31.64;99466.31;4923268;28;20109;-68
2023/04/14 00:49:10;;;;;;;6.13;1.85;;;;;;;10.12;31.16;99459.44;4953947;28;20160;-68
2023/04/14 00:51:36;;;;;;;5.50;2.40;;;;;;;10.12;31.41;99457.63;4972424;28;20141;-68
2023/04/14 00:54:04;;;;;;;3.70;2.08;;;;;;;10.15;31.66;99454.66;4972309;28;20839;-67
2023/04/14 00:56:33;;;;;;;3.97;1.83;;;;;;;10.17;31.56;99467.75;4955924;28;20053;-67
2023/04/14 00:59:00;;;;;;;5.37;2.10;;;;;;;10.09;31.89;99471.22;4974895;28;20424;-66
2023/04/14 01:01:32;;;;;;;4.43;1.98;;;;;;;10.18;31.36;99477.38;4976030;28;20049;-66
2023/04/14 01:03:58;;;;;;;5.88;1.80;;;;;;;9.99;32.08;99475.75;4976635;28;20057;-66
2023/04/14 01:06:27;;;;;;;3.72;2.13;;;;;;;9.88;31.61;99484.00;4983423;28;20336;-66
2023/04/14 01:08:55;;;;;;;2.07;1.87;;;;;;;9.96;31.45;99476.06;4981918;28;20049;-66
2023/04/14 01:11:23;;;;;;;4.87;1.90;;;;;;;9.80;31.85;99464.56;4997627;28;20045;-65
2023/04/14 01:14:26;;;;;;;5.57;1.80;;;;;;;10.11;32.11;99455.13;4970541;28;20050;-66
2023/04/14 01:16:59;;;;;;;5.03;1.70;;;;;;;10.16;31.67;99482.84;4955586;28;20049;-66
2023/04/14 01:19:40;;;;;;;2.30;1.90;;;;;;;9.79;32.36;99476.97;4942810;28;20058;-72
2023/04/14 01:22:08;;;;;;;4.97;2.10;;;;;;;9.97;31.36;99463.66;4958449;28;20576;-67
2023/04/14 01:24:55;;;;;;;2.13;1.90;;;;;;;10.04;31.85;99470.81;4942619;28;20386;-66
2023/04/14 01:28:00;;;;;;;5.30;2.13;;;;;;;9.94;31.48;99488.69;4965217;28;20410;-66
2023/04/14 01:31:03;;;;;;;8.77;2.17;;;;;;;9.76;32.04;99490.53;4889049;28;20040;-68
2023/04/14 01:33:34;;;;;;;3.07;2.10;;;;;;;9.54;32.43;99485.78;4939468;28;20103;-66
2023/04/14 01:36:06;;;;;;;2.20;1.83;;;;;;;9.38;32.75;99482.19;4923818;28;20121;-66
2023/04/14 01:38:36;;;;;;;5.28;2.40;;;;;;;9.24;32.12;99477.44;4955329;28;20046;-66
2023/04/14 01:41:05;;;;;;;4.27;2.37;;;;;;;9.32;32.59;99526.00;4901246;29;20060;-66
2023/04/14 01:43:36;;;;;;;4.32;2.42;;;;;;;9.29;32.69;99514.88;4901492;29;20483;-67
2023/04/14 01:46:06;;;;;;;3.03;2.17;;;;;;;9.31;32.83;99513.75;4901150;29;20051;-67
2023/04/14 01:48:32;;;;;;;4.13;3.13;;;;;;;9.33;32.31;99525.03;4932355;29;20056;-66
2023/04/14 01:51:01;;;;;;;3.03;2.40;;;;;;;9.21;32.32;99515.63;4896037;28;20057;-66
2023/04/14 01:53:27;;;;;;;7.07;2.33;;;;;;;9.23;32.11;99536.69;4923448;28;20145;-73
2023/04/14 01:55:54;;;;;;;2.60;2.23;;;;;;;9.06;32.31;99542.81;4939241;28;20461;-66
2023/04/14 01:58:21;;;;;;;4.27;2.40;;;;;;;9.08;32.66;99541.69;4939012;28;20073;-66
2023/04/14 02:00:49;;;;;;;7.53;2.30;;;;;;;9.12;33.04;99531.66;4954837;28;20379;-66
2023/04/14 02:03:17;;;;;;;4.47;2.50;;;;;;;9.09;32.54;99532.75;4923215;28;20038;-66
2023/04/14 02:05:44;;;;;;;4.53;2.53;;;;;;;8.90;32.76;99534.72;4922940;28;20153;-65
2023/04/14 02:08:12;;;;;;;3.80;2.80;;;;;;;8.98;32.79;99534.81;4938873;28;20086;-66
2023/04/14 02:10:42;;;;;;;3.07;2.47;;;;;;;9.02;33.52;99541.47;4942775;28;20050;-66
2023/04/14 02:13:09;;;;;;;3.03;2.67;;;;;;;8.97;33.19;99531.31;4948773;28;20054;-66
2023/04/14 02:15:38;;;;;;;7.73;3.00;;;;;;;8.84;32.99;99544.06;4965452;28;20096;-65
2023/04/14 02:18:06;;;;;;;7.07;2.63;;;;;;;8.87;33.32;99537.66;4965050;28;20484;-66
2023/04/14 02:20:32;;;;;;;4.20;2.60;;;;;;;8.77;32.96;99547.47;4948932;28;20476;-67
2023/04/14 02:22:59;;;;;;;3.50;2.33;;;;;;;8.75;33.55;99555.56;4949301;28;20076;-72
2023/04/14 02:25:33;;;;;;;5.07;2.57;;;;;;;8.76;33.04;99572.31;4949247;28;20044;-66
2023/04/14 02:28:04;;;;;;;9.50;2.50;;;;;;;8.55;33.30;99577.84;4992234;28;20055;-66
2023/04/14 02:30:37;;;;;;;6.00;2.70;;;;;;;8.58;33.67;99569.59;4985451;28;20128;-69
2023/04/14 02:33:09;;;;;;;5.27;2.63;;;;;;;8.52;33.38;99578.13;5017938;28;20052;-68
2023/04/14 02:35:59;;;;;;;4.23;2.50;;;;;;;8.57;33.50;99567.94;5017604;28;20053;-66
2023/04/14 02:38:36;;;;;;;5.47;2.30;;;;;;;8.46;33.61;99582.19;5001393;28;20107;-66
2023/04/14 02:41:24;;;;;;;6.37;2.57;;;;;;;8.52;33.25;99564.88;5017522;28;20482;-67
2023/04/14 02:43:59;;;;;;;5.70;2.50;;;;;;;8.50;33.70;99577.47;4985091;28;20045;-68
2023/04/14 02:46:31;;;;;;;8.10;2.83;;;;;;;8.39;33.80;99573.16;5000093;28;20431;-66
2023/04/14 02:48:58;;;;;;;5.40;2.47;;;;;;;8.29;33.63;99553.00;5000489;28;20045;-66
2023/04/14 02:51:26;;;;;;;7.13;2.10;;;;;;;8.24;33.24;99571.16;4983951;28;20446;-66
2023/04/14 02:53:53;;;;;;;3.00;2.50;;;;;;;8.07;33.19;99564.75;4984111;28;20042;-65
2023/04/14 02:56:37;;;;;;;4.33;2.53;;;;;;;8.06;33.30;99567.53;5002382;28;20072;-66
2023/04/14 02:59:03;;;;;;;6.03;2.90;;;;;;;8.16;33.42;99590.34;4992299;28;20487;-66
2023/04/14 03:01:31;;;;;;;5.37;2.90;;;;;;;8.12;33.72;99598.72;4998688;28;20148;-71
2023/04/14 03:03:58;;;;;;;5.17;2.50;;;;;;;8.17;33.63;99591.19;5000540;28;20458;-79
2023/04/14 03:06:26;;;;;;;9.03;2.50;;;;;;;8.19;33.44;99581.31;4984041;28;20057;-74
2023/04/14 03:08:54;;;;;;;6.67;2.70;;;;;;;8.22;33.41;99596.88;4992627;28;20159;-76
2023/04/14 03:11:21;;;;;;;2.43;2.17;;;;;;;8.05;33.91;99593.19;4985879;28;20061;-76
2023/04/14 03:13:51;;;;;;;7.30;2.67;;;;;;;8.15;33.47;99617.78;4994757;28;20387;-75
2023/04/14 03:16:20;;;;;;;3.40;2.50;;;;;;;8.09;33.74;99614.88;4999777;28;20080;-74
2023/04/14 03:18:52;;;;;;;4.00;2.50;;;;;;;8.14;33.82;99624.06;5000569;28;20127;-75
2023/04/14 03:21:19;;;;;;;9.80;2.60;;;;;;;7.97;33.59;99614.22;4983704;28;20053;-76
2023/04/14 03:23:47;;;;;;;6.13;2.40;;;;;;;7.94;33.70;99622.44;4984476;28;20048;-73
2023/04/14 03:26:17;;;;;;;5.13;2.60;;;;;;;8.11;33.73;99615.56;4984324;28;20037;-73
2023/04/14 03:28:46;;;;;;;4.50;2.70;;;;;;;8.11;33.72;99612.94;4984639;28;20065;-73
2023/04/14 03:31:15;;;;;;;4.47;2.90;;;;;;;8.20;34.51;99612.06;5000907;28;20037;-73
2023/04/14 03:33:56;;;;;;;10.60;2.23;;;;;;;8.12;34.19;99626.00;4987152;28;20045;-71
2023/04/14 03:36:25;;;;;;;5.27;2.17;;;;;;;8.14;34.45;99634.66;4985346;28;20050;-74
2023/04/14 03:38:57;;;;;;;7.43;2.60;;;;;;;8.18;33.59;99625.44;5016536;28;20068;-73
2023/04/14 03:41:26;;;;;;;4.80;2.60;;;;;;;8.02;33.42;99641.06;4984920;28;20407;-72
2023/04/14 03:43:55;;;;;;;9.13;3.53;;;;;;;7.97;33.01;99626.59;4988052;28;20052;-73
2023/04/14 03:46:27;;;;;;;4.70;2.47;;;;;;;7.89;36.00;99627.31;4962742;28;20061;-72
2023/04/14 03:48:54;;;;;;;2.67;2.20;;;;;;;7.95;33.70;99625.91;4944756;28;20983;-71
2023/04/14 03:51:22;;;;;;;3.37;2.33;;;;;;;7.97;33.43;99637.16;4942577;28;20551;-69
2023/04/14 03:53:50;;;;;;;10.63;2.97;;;;;;;7.97;33.46;99642.47;4920244;29;20047;-74
2023/04/14 03:56:17;;;;;;;6.37;2.63;;;;;;;7.90;33.75;99642.19;4920411;29;20051;-73
2023/04/14 03:58:53;;;;;;;6.53;2.27;;;;;;;7.80;33.69;99629.94;4904569;29;20062;-75
2023/04/14 04:01:24;;;;;;;4.73;2.23;;;;;;;7.95;34.58;99632.03;4935996;29;20072;-74
2023/04/14 04:03:52;;;;;;;9.52;2.45;;;;;;;7.92;33.15;99647.31;4935925;29;20444;-74
2023/04/14 04:06:18;;;;;;;9.23;2.23;;;;;;;7.79;33.50;99646.78;4928170;29;20054;-71
2023/04/14 04:08:47;;;;;;;5.23;2.20;;;;;;;7.96;33.40;99651.38;4905966;29;20058;-72
2023/04/14 04:11:17;;;;;;;4.83;2.07;;;;;;;7.95;33.37;99633.84;4920336;29;20063;-73
2023/04/14 04:13:44;;;;;;;8.63;3.42;;;;;;;8.07;33.63;99654.69;4909298;29;20476;-73
2023/04/14 04:16:10;;;;;;;12.83;3.07;;;;;;;8.05;33.37;99658.47;4933930;29;20046;-73
2023/04/14 04:18:38;;;;;;;15.07;5.33;;;;;;;8.11;33.10;99634.94;4933963;29;20061;-73
2023/04/14 04:21:06;;;;;;;7.93;3.27;;;;;;;8.22;32.60;99660.38;4920819;29;20104;-74
2023/04/14 04:23:33;;;;;;;6.03;2.80;;;;;;;8.32;32.47;99670.00;4939958;28;20050;-73
2023/04/14 04:25:59;;;;;;;10.20;4.77;;;;;;;8.23;33.41;99668.22;4996558;28;20059;-74
2023/04/14 04:28:32;;;;;;;5.93;1.80;;;;;;;8.30;32.03;99671.13;4982112;28;20050;-73
2023/04/14 04:30:59;;;;;;;6.00;3.07;;;;;;;8.35;32.82;99660.91;4989160;28;20216;-74
2023/04/14 04:33:28;;;;;;;6.70;2.43;;;;;;;8.51;31.68;99661.16;4981206;28;20061;-73
2023/04/14 04:35:56;;;;;;;7.93;2.43;;;;;;;8.38;32.21;99671.22;4981005;28;20466;-74
2023/04/14 04:38:27;;;;;;;9.17;2.00;;;;;;;8.29;31.77;99661.50;4996145;28;20045;-73
2023/04/14 04:40:54;;;;;;;5.17;2.50;;;;;;;8.25;31.95;99673.34;4992680;28;20058;-74
2023/04/14 04:43:25;;;;;;;4.95;2.30;;;;;;;8.50;31.42;99678.03;4996844;28;20111;-74
2023/04/14 04:46:09;;;;;;;6.67;2.40;;;;;;;8.70;31.46;99668.22;4980887;28;20041;-74
2023/04/14 04:48:35;;;;;;;12.07;2.93;;;;;;;8.53;32.11;99675.91;4995265;28;20132;-73
2023/04/14 04:51:03;;;;;;;4.70;2.17;;;;;;;8.50;31.27;99662.97;4997282;28;20470;-75
2023/04/14 04:53:29;;;;;;;12.73;2.30;;;;;;;8.42;30.85;99673.47;4969514;28;20054;-74
2023/04/14 04:55:57;;;;;;;9.77;2.70;;;;;;;8.43;31.50;99661.03;4943871;28;20054;-74
2023/04/14 04:58:22;;;;;;;9.63;2.53;;;;;;;8.32;30.78;99666.50;4960403;28;20042;-74
2023/04/14 05:00:48;;;;;;;5.50;2.50;;;;;;;8.40;31.71;99674.56;4962448;28;20451;-73
2023/04/14 05:03:15;;;;;;;3.00;1.87;;;;;;;8.42;30.58;99685.84;4961443;28;20049;-74
2023/04/14 05:05:41;;;;;;;5.60;2.50;;;;;;;8.60;31.56;99684.13;4977789;28;20050;-73
2023/04/14 05:08:07;;;;;;;13.83;2.10;;;;;;;8.57;31.00;99685.25;4978359;28;20054;-75
2023/04/14 05:10:35;;;;;;;9.33;2.10;;;;;;;8.80;30.89;99682.22;4978719;28;20476;-74
2023/04/14 05:13:02;;;;;;;2.17;1.80;;;;;;;8.75;29.98;99687.97;4978650;28;20057;-74
2023/04/14 05:15:28;;;;;;;4.53;1.97;;;;;;;8.79;29.97;99691.16;4978511;28;20045;-73
2023/04/14 05:17:53;;;;;;;2.63;1.80;;;;;;;8.82;29.91;99693.53;4978102;28;20116;-73
2023/04/14 05:20:20;;;;;;;2.07;1.70;;;;;;;8.92;29.72;99694.31;4978107;28;20491;-73
2023/04/14 05:22:45;;;;;;;9.27;1.90;;;;;;;8.93;29.65;99686.25;4978357;28;20053;-74
2023/04/14 05:25:11;;;;;;;3.60;1.90;;;;;;;8.89;29.44;99676.09;4994740;28;20072;-74
2023/04/14 05:27:38;;;;;;;2.17;1.60;;;;;;;9.06;29.23;99697.31;4982424;28;20430;-74
2023/04/14 05:30:05;;;;;;;2.37;1.90;;;;;;;9.28;29.07;99701.38;4999154;28;20041;-73
2023/04/14 05:32:31;;;;;;;2.23;1.50;;;;;;;9.22;28.50;99696.69;4982703;28;20041;-73
2023/04/14 05:34:57;;;;;;;5.50;1.60;;;;;;;9.15;28.37;99680.53;4982553;28;20533;-74
2023/04/14 05:37:23;;;;;;;3.13;1.60;;;;;;;9.09;28.24;99697.00;4982284;28;20124;-73
2023/04/14 05:39:48;;;;;;;5.93;1.87;;;;;;;9.08;28.79;99697.16;4998343;28;20072;-73
2023/04/14 05:42:14;;;;;;;3.57;1.67;;;;;;;9.22;28.65;99708.13;4982465;28;20475;-73
2023/04/14 05:44:40;;;;;;;2.87;1.80;;;;;;;9.31;28.22;99709.03;4987279;28;20394;-72
2023/04/14 05:47:06;;;;;;;1.60;1.50;;;;;;;9.40;28.18;99711.63;4989199;28;20506;-73
2023/04/14 05:49:32;;;;;;;6.53;2.13;;;;;;;9.51;27.81;99714.09;4969051;28;20072;-72
2023/04/14 05:51:58;;;;;;;6.27;1.97;;;;;;;9.63;27.82;99696.13;4984544;28;20115;-73
2023/04/14 05:54:24;;;;;;;3.13;1.70;;;;;;;9.62;27.55;99700.63;4968221;28;20058;-73
2023/04/14 05:56:49;;;;;;;5.33;1.63;;;;;;;9.72;27.10;99711.97;4984285;28;20463;-73
2023/04/14 05:59:16;;;;;;;10.40;1.70;;;;;;;9.82;27.74;99696.84;4984443;28;20571;-74
2023/04/14 06:01:41;;;;;;;6.10;1.63;;;;;;;9.78;27.10;99713.19;4968334;28;20148;-73
2023/04/14 06:04:07;;;;;;;5.18;1.90;;;;;;;9.93;27.40;99704.53;4968628;28;20615;-73
2023/04/14 06:06:33;;;;;;;4.43;2.43;;;;;;;10.04;26.57;99719.41;4968377;28;20037;-74
2023/04/14 06:08:59;;;;;;;5.03;2.00;;;;;;;10.09;26.33;99715.34;4968077;28;20077;-73
2023/04/14 06:11:25;;;;;;;5.50;1.90;;;;;;;10.19;26.09;99721.38;4968081;28;20491;-73
2023/04/14 06:13:50;;;;;;;8.63;2.15;;;;;;;10.41;25.90;99713.94;4968008;28;20145;-73
2023/04/14 06:16:16;;;;;;;6.28;1.70;;;;;;;10.45;25.67;99720.59;4967978;28;20037;-73
2023/04/14 06:18:42;;;;;;;1.52;1.40;;;;;;;10.65;25.83;99732.69;4968002;28;20046;-74
2023/04/14 06:21:08;;;;;;;6.88;1.80;;;;;;;11.05;25.20;99711.66;4984080;28;20496;-73
2023/04/14 06:23:34;;;;;;;3.13;1.40;;;;;;;10.94;24.83;99722.56;4968198;28;20050;-73
2023/04/14 06:26:00;;;;;;;6.25;1.88;;;;;;;11.11;24.36;99727.81;4986786;28;20499;-74
2023/04/14 06:28:26;;;;;;;10.80;1.70;;;;;;;11.33;24.34;99729.06;5020578;28;20562;-73
2023/04/14 06:30:52;;;;;;;10.70;1.50;;;;;;;11.51;23.77;99740.41;4993689;28;20525;-73
2023/04/14 06:33:17;;;;;;;8.40;1.52;;;;;;;11.69;23.80;99739.34;5007894;28;20395;-73
2023/04/14 06:35:43;;;;;;;4.07;1.45;;;;;;;11.73;23.20;99718.56;5005461;28;20049;-74
2023/04/14 06:38:09;;;;;;;2.80;1.77;;;;;;;11.83;23.12;99738.72;5005236;28;20049;-75
2023/04/14 06:40:35;;;;;;;8.80;1.60;;;;;;;12.04;23.58;99748.88;4988385;28;20057;-73
2023/04/14 06:43:01;;;;;;;8.25;1.50;;;;;;;11.86;22.88;99732.22;4987851;28;20538;-73
2023/04/14 06:45:27;;;;;;;12.43;1.67;;;;;;;11.89;22.91;99739.88;4988109;28;20044;-73
2023/04/14 06:47:53;;;;;;;3.08;1.42;;;;;;;12.07;22.58;99745.06;4987870;28;20375;-73
2023/04/14 06:50:20;;;;;;;2.80;1.50;;;;;;;12.17;22.46;99738.59;5004503;28;20084;-73
2023/04/14 06:52:46;;;;;;;8.95;2.00;;;;;;;12.27;22.19;99744.56;4987980;28;20069;-73
2023/04/14 06:55:12;;;;;;;7.30;1.70;;;;;;;12.41;22.41;99748.41;5002764;28;20045;-74
2023/04/14 06:57:38;;;;;;;10.15;1.52;;;;;;;12.52;22.14;99740.06;4985128;28;20048;-73
2023/04/14 07:00:07;;;;;;;8.48;1.70;;;;;;;12.78;21.44;99751.34;4985019;28;20044;-74
2023/04/14 07:02:34;;;;;;;1.47;1.30;;;;;;;12.78;21.21;99768.19;4985350;28;20045;-74
2023/04/14 07:05:01;;;;;;;5.35;1.38;;;;;;;12.86;21.54;99744.19;4985518;28;20460;-74
2023/04/14 07:07:28;;;;;;;5.05;1.70;;;;;;;12.94;21.18;99746.84;4985442;28;20055;-73
2023/04/14 07:09:54;;;;;;;10.70;1.80;;;;;;;12.97;20.88;99748.34;4984736;28;20135;-74
2023/04/14 07:12:20;;;;;;;4.03;1.60;;;;;;;13.03;21.13;99727.19;4984688;28;20045;-74
2023/04/14 07:14:50;;;;;;;6.13;2.10;;;;;;;12.76;21.81;99748.88;4984793;28;20037;-74
2023/04/14 07:17:17;;;;;;;14.30;2.95;;;;;;;12.77;21.18;99745.22;4985504;28;20096;-74
2023/04/14 07:19:43;;;;;;;5.88;1.40;;;;;;;12.80;20.94;99752.88;5001218;28;20136;-75
2023/04/14 07:22:09;;;;;;;5.20;1.67;;;;;;;12.89;20.61;99756.34;4985315;28;20037;-74
2023/04/14 07:24:35;;;;;;;5.22;1.75;;;;;;;13.29;20.87;99753.59;4984602;28;20060;-73
2023/04/14 07:27:01;;;;;;;9.43;1.60;;;;;;;13.61;20.79;99769.47;4984517;28;20436;-73
2023/04/14 07:29:28;;;;;;;4.18;1.40;;;;;;;13.88;19.67;99773.50;5000910;28;20115;-73
2023/04/14 07:31:54;;;;;;;5.30;2.00;;;;;;;14.12;19.10;99768.00;4984670;28;20095;-73
2023/04/14 07:34:20;;;;;;;7.43;1.80;;;;;;;14.35;18.86;99756.34;4984053;28;20049;-74
2023/04/14 07:36:45;;;;;;;8.45;1.65;;;;;;;14.93;18.55;99747.63;5000463;28;20045;-74
2023/04/14 07:39:11;;;;;;;9.07;1.70;;;;;;;16.74;17.22;99761.53;4984443;28;20041;-73
2023/04/14 07:41:37;;;;;;;4.40;1.45;;;;;;;19.51;15.01;99775.34;5016647;28;20045;-73
2023/04/14 07:44:05;;;;;;;5.75;1.95;;;;;;;22.30;13.00;99746.16;4984199;28;20628;-74
2023/04/14 07:46:31;;;;;;;9.82;2.67;;;;;;;24.41;11.55;99759.94;5000209;28;20097;-74
2023/04/14 07:48:58;;;;;;;15.73;2.10;;;;;;;26.71;9.79;99752.50;4984156;28;20041;-74
2023/04/14 07:51:23;;;;;;;7.47;2.10;;;;;;;28.28;8.87;99750.41;4984051;28;20045;-75
2023/04/14 07:53:51;;;;;;;7.97;1.75;;;;;;;29.41;8.12;99756.19;4983936;28;20115;-75
2023/04/14 07:56:18;;;;;;;7.38;1.50;;;;;;;29.85;7.54;99752.75;4984262;28;20140;-75
2023/04/14 07:58:44;;;;;;;5.05;2.00;;;;;;;30.51;7.10;99760.38;5000448;28;20064;-76
2023/04/14 08:01:10;;;;;;;6.13;1.58;;;;;;;31.05;6.78;99758.31;4984108;28;20046;-75
2023/04/14 08:03:36;;;;;;;5.22;2.10;;;;;;;31.28;6.66;99745.72;4999916;28;20557;-75
2023/04/14 08:06:04;;;;;;;5.30;1.70;;;;;;;31.42;6.29;99743.97;4983619;28;20044;-75
2023/04/14 08:08:30;;;;;;;7.68;1.70;;;;;;;31.89;6.46;99737.66;4983665;28;20041;-75
2023/04/14 08:10:56;;;;;;;6.45;2.35;;;;;;;32.38;5.93;99747.16;4983622;28;20483;-76
2023/04/14 08:13:22;;;;;;;10.27;1.80;;;;;;;33.10;5.73;99758.66;4999674;28;20087;-76
2023/04/14 08:15:48;;;;;;;6.38;1.52;;;;;;;33.38;5.87;99747.44;4983766;28;20073;-76
2023/04/14 08:18:17;;;;;;;15.05;2.20;;;;;;;34.52;4.68;99755.50;4983846;28;20045;-76
2023/04/14 08:20:43;;;;;;;9.07;1.92;;;;;;;34.29;4.88;99751.84;4983641;28;20053;-77
2023/04/14 08:23:10;;;;;;;9.02;2.10;;;;;;;35.05;4.46;99754.47;4999826;28;20132;-77
2023/04/14 08:25:37;;;;;;;8.25;2.17;;;;;;;32.89;5.33;99743.63;4999670;28;20048;-76
2023/04/14 08:28:03;;;;;;;5.22;2.05;;;;;;;33.85;5.00;99758.03;4983318;28;20084;-75
2023/04/14 08:30:29;;;;;;;6.40;2.50;;;;;;;34.90;4.39;99748.53;4983197;28;20505;-75
2023/04/14 08:32:55;;;;;;;9.77;2.60;;;;;;;35.35;4.02;99742.63;4999403;28;20045;-75
2023/04/14 08:35:23;;;;;;;9.45;1.80;;;;;;;35.91;4.29;99738.28;4983178;28;20064;-75
2023/04/14 08:37:48;;;;;;;8.20;1.80;;;;;;;35.73;4.08;99751.25;4983218;28;20049;-75
2023/04/14 08:40:15;;;;;;;8.80;1.95;;;;;;;36.15;3.81;99742.25;4999503;28;20541;-75
2023/04/14 08:42:41;;;;;;;14.57;2.85;;;;;;;36.39;3.52;99739.06;4999213;28;20059;-75
2023/04/14 08:45:07;;;;;;;7.13;2.00;;;;;;;36.34;3.36;99745.56;4999074;28;20045;-75
2023/04/14 08:47:34;;;;;;;10.27;1.83;;;;;;;36.73;3.39;99739.88;4983056;28;20079;-75
2023/04/14 08:50:03;;;;;;;10.93;1.50;;;;;;;37.26;3.45;99738.66;4999265;28;20144;-76
2023/04/14 08:52:30;;;;;;;6.00;1.63;;;;;;;37.85;3.25;99751.44;4982965;28;20041;-75
2023/04/14 08:54:57;;;;;;;7.07;1.80;;;;;;;38.02;2.96;99721.66;4999199;28;20049;-75
2023/04/14 08:57:25;;;;;;;11.60;1.80;;;;;;;37.95;3.33;99735.22;4998895;28;20136;-75
2023/04/14 08:59:51;;;;;;;9.38;1.70;;;;;;;37.93;3.04;99732.00;4998997;28;20049;-75
2023/04/14 09:02:20;;;;;;;26.10;2.35;;;;;;;38.01;3.03;99735.88;4999008;28;20128;-75
2023/04/14 09:04:46;;;;;;;12.80;2.20;;;;;;;37.67;3.12;99741.59;4983054;28;20045;-75
2023/04/14 09:07:12;;;;;;;15.35;2.75;;;;;;;37.21;3.26;99740.44;4982740;28;20076;-76
2023/04/14 09:09:39;;;;;;;12.77;2.10;;;;;;;36.55;3.33;99743.75;4999349;28;20049;-76
2023/04/14 09:12:05;;;;;;;9.13;1.60;;;;;;;36.58;3.43;99734.00;4998712;28;20060;-76
2023/04/14 09:14:32;;;;;;;11.38;1.67;;;;;;;37.35;2.92;99736.66;4982674;28;20048;-76
2023/04/14 09:16:58;;;;;;;9.73;1.50;;;;;;;37.67;2.72;99750.75;4998639;28;20045;-76
2023/04/14 09:19:24;;;;;;;7.10;1.50;;;;;;;37.97;2.79;99752.38;4981627;28;20045;-75
2023/04/14 09:21:51;;;;;;;5.53;1.45;;;;;;;37.89;2.67;99753.22;4998725;28;20045;-76
2023/04/14 09:24:22;;;;;;;6.72;1.55;;;;;;;37.98;2.55;99753.97;5015442;28;20083;-75
2023/04/14 09:26:51;;;;;;;8.35;1.30;;;;;;;37.97;2.81;99752.38;4983270;28;20057;-75
2023/04/14 09:29:17;;;;;;;6.82;1.33;;;;;;;37.64;3.01;99743.06;4982705;28;20041;-76
2023/04/14 09:31:46;;;;;;;8.02;1.48;;;;;;;37.22;3.10;99758.72;5014914;28;20442;-76
2023/04/14 09:34:17;;;;;;;8.93;1.55;;;;;;;37.15;3.09;99755.59;4998427;28;20061;-75
2023/04/14 09:36:59;;;;;;;8.10;1.42;;;;;;;37.45;3.00;99748.19;4982118;28;20454;-75
2023/04/14 09:39:26;;;;;;;7.40;1.67;;;;;;;37.56;3.45;99746.69;4998300;28;20045;-74
2023/04/14 09:41:52;;;;;;;6.40;1.60;;;;;;;37.70;3.09;99769.50;4982599;28;20067;-76
2023/04/14 09:44:17;;;;;;;7.22;1.55;;;;;;;37.19;3.21;99747.44;5017423;28;20535;-75
2023/04/14 09:47:00;;;;;;;5.50;1.40;;;;;;;37.02;3.21;99758.56;5003157;28;20041;-76
2023/04/14 09:49:27;;;;;;;10.82;1.63;;;;;;;36.80;3.28;99744.91;5000461;28;20084;-76
2023/04/14 09:51:56;;;;;;;9.52;1.50;;;;;;;36.50;3.00;99757.78;5032251;28;20565;-77
2023/04/14 09:54:25;;;;;;;10.43;1.38;;;;;;;36.63;3.23;99767.88;4982528;28;20052;-77
2023/04/14 09:56:55;;;;;;;9.38;2.25;;;;;;;36.95;3.20;99763.81;4982179;28;20050;-76
2023/04/14 09:59:35;;;;;;;7.63;1.70;;;;;;;36.62;3.16;99766.25;5014702;28;20131;-76
2023/04/14 10:02:08;;;;;;;;;;;;;;;37.06;3.38;99773.38;4998849;28;20049;-76
2023/04/14 10:04:35;;;;;;;4.75;1.52;;;;;;;37.54;2.98;99773.09;4998255;28;20347;-77
2023/04/14 10:07:10;;;;;;;4.78;1.85;;;;;;;37.66;2.90;99771.28;5015367;28;20390;-79
2023/04/14 10:09:37;;;;;;;3.58;1.30;;;;;;;37.46;2.83;99783.06;4982607;28;20388;-78
2023/04/14 10:12:07;;;;;;;8.13;1.60;;;;;;;37.84;2.70;99775.63;4982075;28;20468;-78
2023/04/14 10:14:35;;;;;;;6.60;1.90;;;;;;;37.95;2.69;99776.06;5014310;28;20044;-79
2023/04/14 10:17:02;;;;;;;13.10;1.83;;;;;;;37.55;2.93;99780.28;5014755;28;20052;-79
2023/04/14 10:19:28;;;;;;;7.18;1.40;;;;;;;36.89;3.27;99781.75;4982106;28;20038;-79
2023/04/14 10:21:58;;;;;;;4.88;1.52;;;;;;;36.58;2.95;99781.06;4982204;28;20143;-77
2023/04/14 10:24:24;;;;;;;12.67;1.87;;;;;;;36.66;3.24;99791.31;4998247;28;20640;-77
2023/04/14 10:26:51;;;;;;;7.28;1.63;;;;;;;36.85;2.88;99792.66;5014373;28;20284;-76
2023/04/14 10:29:17;;;;;;;7.72;1.63;;;;;;;37.17;3.02;99785.75;4981697;28;20148;-78
2023/04/14 10:31:47;;;;;;;13.88;1.55;;;;;;;37.60;2.72;99771.78;4985367;28;20087;-77
2023/04/14 10:34:13;;;;;;;;;;;;;;;37.07;2.73;99784.13;4985771;28;20048;-78
2023/04/14 10:36:40;;;;;;;6.57;1.38;;;;;;;36.60;3.20;99784.28;5017795;28;19928;-76
2023/04/14 10:39:06;;;;;;;8.18;1.90;;;;;;;36.19;3.24;99772.84;5001626;28;20037;-75
2023/04/14 10:41:41;;;;;;;11.50;1.70;;;;;;;36.32;3.28;99781.03;5034130;28;20065;-76
2023/04/14 10:44:26;;;;;;;5.32;1.35;;;;;;;36.42;2.86;99793.75;5001279;28;20048;-76
2023/04/14 10:46:54;;;;;;;8.00;1.35;;;;;;;36.28;3.11;99777.25;5017872;28;20045;-76
2023/04/14 10:49:29;;;;;;;7.93;1.48;;;;;;;36.55;2.77;99792.78;4985485;28;20045;-77
2023/04/14 10:52:03;;;;;;;5.00;1.30;;;;;;;36.60;2.90;99793.44;4985428;28;20506;-77
2023/04/14 10:55:08;;;;;;;7.72;1.55;;;;;;;36.29;2.67;99773.38;4985212;28;20480;-77
2023/04/14 10:57:42;;;;;;;4.47;1.52;;;;;;;35.61;2.78;99782.25;5001687;28;20256;-77
2023/04/14 11:00:27;;;;;;;4.90;1.50;;;;;;;35.30;3.40;99786.13;5001145;28;20114;-77
2023/04/14 11:03:06;;;;;;;8.77;1.65;;;;;;;35.27;3.36;99787.59;5001369;28;20392;-75
2023/04/14 11:05:34;;;;;;;5.38;1.42;;;;;;;34.47;3.28;99761.97;5001087;28;20050;-76
2023/04/14 11:08:30;;;;;;;10.30;1.80;;;;;;;33.97;3.41;99785.09;4985013;28;20069;-76
2023/04/14 11:11:03;;;;;;;10.57;1.95;;;;;;;32.74;3.72;99794.19;5003479;28;20054;-76
2023/04/14 11:13:30;;;;;;;11.27;1.88;;;;;;;31.31;4.18;99774.56;5001109;28;20079;-76
2023/04/14 11:16:00;;;;;;;11.63;1.65;;;;;;;30.93;4.83;99771.59;4984641;28;20056;-76
2023/04/14 11:19:20;;;;;;;6.35;1.83;;;;;;;31.29;4.53;99783.09;4986315;28;20037;-79
2023/04/14 11:21:52;;;;;;;6.45;1.48;;;;;;;31.14;4.71;99780.44;5017065;28;20053;-77
2023/04/14 11:24:21;;;;;;;12.73;1.45;;;;;;;31.06;4.64;99786.56;5001200;28;20041;-80
2023/04/14 11:26:48;;;;;;;4.50;1.50;;;;;;;29.90;5.07;99777.41;4984216;28;20053;-78
2023/04/14 11:29:15;;;;;;;8.57;1.80;;;;;;;28.25;5.99;99776.34;4979792;28;20447;-77
2023/04/14 11:31:41;;;;;;;4.35;1.60;;;;;;;27.20;6.37;99781.25;4996269;28;20123;-76
2023/04/14 11:34:07;;;;;;;5.85;1.95;;;;;;;26.25;6.63;99782.00;4979611;28;20049;-75
2023/04/14 11:36:38;;;;;;;9.60;1.80;;;;;;;25.33;7.31;99780.25;4963596;28;20064;-77
2023/04/14 11:39:09;;;;;;;13.05;1.88;;;;;;;24.16;7.66;99767.59;4964681;28;20057;-77
2023/04/14 11:41:38;;;;;;;6.13;1.40;;;;;;;23.72;7.85;99784.59;4956276;28;20125;-77
2023/04/14 11:44:04;;;;;;;4.90;1.50;;;;;;;23.00;8.30;99775.03;4937718;29;20053;-76
2023/04/14 11:46:32;;;;;;;7.78;1.70;;;;;;;22.54;8.89;99774.16;4922141;29;20051;-77